Time;durP1;ratioP1;P1;durP2;ratioP2;P2;SDS_P1;SDS_P2;PMS_P1;PMS_P2;Temp;Humidity;BMP_temperature;BMP_pressure;BME280_temperature;BME280_humidity;BME280_pressure;Samples;Min_cycle;Max_cycle;Signal;HPM_P1;HPM_P2
2023/10/05 00:01:47;;;;;;;11.52;4.10;;;13.00;99.90;;;;;;5098358;28;20142;-45
2023/10/05 00:04:15;;;;;;;12.48;3.45;;;13.00;99.90;;;;;;5098694;28;20582;-45
2023/10/05 00:06:42;;;;;;;8.60;3.65;;;13.00;99.90;;;;;;5105262;28;20050;-45
2023/10/05 00:09:12;;;;;;;10.77;3.80;;;13.00;99.90;;;;;;5106411;27;20452;-45
2023/10/05 00:11:39;;;;;;;9.23;3.50;;;13.00;99.90;;;;;;5106874;27;20046;-45
2023/10/05 00:14:09;;;;;;;10.55;3.25;;;13.00;99.90;;;;;;5106728;27;20047;-44
2023/10/05 00:16:37;;;;;;;11.07;3.83;;;13.00;99.90;;;;;;5106865;27;20192;-45
2023/10/05 00:19:12;;;;;;;9.63;3.40;;;13.00;99.90;;;;;;5106741;27;20043;-44
2023/10/05 00:21:57;;;;;;;13.65;3.40;;;13.00;99.90;;;;;;5105687;28;20489;-44
2023/10/05 00:24:28;;;;;;;10.25;3.30;;;13.10;99.90;;;;;;5107145;27;20115;-45
2023/10/05 00:26:56;;;;;;;10.25;2.92;;;13.10;99.90;;;;;;5106988;27;20069;-46
2023/10/05 00:29:28;;;;;;;13.88;3.05;;;13.20;99.90;;;;;;5105767;28;20047;-44
2023/10/05 00:31:59;;;;;;;9.48;2.78;;;13.40;99.90;;;;;;5101330;27;20034;-46
2023/10/05 00:34:27;;;;;;;10.82;4.20;;;13.40;99.90;;;;;;5106545;27;20109;-46
2023/10/05 00:36:59;;;;;;;9.23;2.67;;;13.50;99.90;;;;;;5106430;27;20039;-45
2023/10/05 00:39:29;;;;;;;16.67;3.67;;;13.60;99.90;;;;;;5106235;27;20170;-46
2023/10/05 00:44:30;;;;;;;11.38;3.42;;;13.60;99.90;;;;;;5090285;28;20073;-44
2023/10/05 00:47:00;;;;;;;15.80;3.40;;;13.60;99.90;;;;;;5104525;28;20035;-45
2023/10/05 00:49:29;;;;;;;12.35;3.42;;;13.70;99.90;;;;;;5105838;27;20637;-44
2023/10/05 00:54:36;;;;;;;14.35;4.03;;;13.70;99.90;;;;;;5105956;27;20050;-44
2023/10/05 00:57:05;;;;;;;11.90;3.20;;;13.80;99.90;;;;;;5106155;27;20120;-45
2023/10/05 00:59:32;;;;;;;10.90;2.50;;;13.80;99.90;;;;;;5092856;28;20534;-44
2023/10/05 01:02:05;;;;;;;10.23;2.90;;;13.80;99.90;;;;;;5104363;27;20040;-44
2023/10/05 01:04:52;;;;;;;9.85;2.67;;;13.90;99.90;;;;;;5106455;27;20107;-44
2023/10/05 01:07:28;;;;;;;10.98;2.88;;;13.90;99.90;;;;;;5104828;28;20488;-43
2023/10/05 01:14:52;;;;;;;14.07;2.90;;;13.90;99.90;;;;;;5104972;28;20069;-44
2023/10/05 01:17:25;;;;;;;13.82;3.10;;;13.90;99.90;;;;;;5103775;27;20368;-44
2023/10/05 01:19:56;;;;;;;;;;;13.90;99.90;;;;;;5103553;27;20430;-45
2023/10/05 01:22:24;;;;;;;14.10;3.20;;;13.80;99.90;;;;;;5103319;28;19919;-45
2023/10/05 01:24:50;;;;;;;11.57;3.50;;;13.80;99.90;;;;;;5101561;28;20044;-47
2023/10/05 01:27:19;;;;;;;10.68;3.30;;;13.80;99.90;;;;;;5100809;28;20043;-45
2023/10/05 01:29:44;;;;;;;12.00;3.70;;;13.80;99.90;;;;;;5083994;28;20096;-44
2023/10/05 01:32:10;;;;;;;13.00;3.00;;;13.80;99.90;;;;;;5102563;28;20494;-44
2023/10/05 01:34:37;;;;;;;9.93;3.42;;;13.80;99.90;;;;;;5084080;28;20051;-44
2023/10/05 01:37:05;;;;;;;11.43;2.92;;;13.80;99.90;;;;;;5102485;28;20036;-46
2023/10/05 01:39:35;;;;;;;11.68;3.63;;;13.80;99.90;;;;;;5083811;28;20043;-45
2023/10/05 01:42:05;;;;;;;15.32;2.97;;;13.80;99.90;;;;;;5100560;28;20091;-47
2023/10/05 01:44:31;;;;;;;9.43;2.80;;;13.80;99.90;;;;;;5088305;27;20493;-45
2023/10/05 01:46:58;;;;;;;11.77;3.10;;;13.80;99.90;;;;;;5100480;28;20047;-44
2023/10/05 01:49:25;;;;;;;13.85;3.00;;;13.80;99.90;;;;;;5102122;28;20116;-44
2023/10/05 01:51:52;;;;;;;12.13;3.17;;;13.80;99.90;;;;;;5100718;28;20039;-44
2023/10/05 01:54:18;;;;;;;11.13;3.05;;;13.80;99.90;;;;;;5102407;27;20381;-46
2023/10/05 01:56:47;;;;;;;12.77;3.00;;;13.80;99.90;;;;;;5100751;28;20058;-45
2023/10/05 01:59:13;;;;;;;13.38;3.03;;;13.80;99.90;;;;;;5101480;28;20055;-45
2023/10/05 02:01:40;;;;;;;13.35;3.28;;;13.80;99.90;;;;;;5101509;28;20640;-44
2023/10/05 02:04:07;;;;;;;14.68;3.53;;;13.80;99.90;;;;;;5100725;28;20043;-45
2023/10/05 02:06:40;;;;;;;13.23;3.35;;;13.90;99.90;;;;;;5100242;28;20452;-43
2023/10/05 02:09:06;;;;;;;21.17;4.35;;;13.90;99.90;;;;;;5083039;28;20070;-44
2023/10/05 02:11:33;;;;;;;15.10;3.67;;;13.90;99.90;;;;;;5100265;28;20051;-44
2023/10/05 02:14:06;;;;;;;9.48;3.33;;;14.00;99.90;;;;;;5101964;28;20047;-44
2023/10/05 02:16:32;;;;;;;14.05;3.33;;;14.00;99.90;;;;;;5101708;28;20138;-44
2023/10/05 02:19:02;;;;;;;12.77;3.13;;;14.00;99.90;;;;;;5101272;28;20464;-44
2023/10/05 02:21:36;;;;;;;13.38;3.13;;;14.10;99.90;;;;;;5101216;28;20839;-45
2023/10/05 02:24:18;;;;;;;12.18;4.07;;;14.10;99.90;;;;;;5099780;28;20051;-45
2023/10/05 02:29:21;;;;;;;14.45;3.58;;;14.10;99.90;;;;;;5099926;28;20470;-45
2023/10/05 02:35:18;;;;;;;13.93;3.28;;;14.20;99.90;;;;;;5101405;28;20043;-45
2023/10/05 02:37:24;;;;;;;15.00;3.53;;;14.10;99.90;;;;;;5097821;28;20108;-44
2023/10/05 02:39:50;;;;;;;15.60;3.33;;;14.10;99.90;;;;;;5099452;28;20052;-45
2023/10/05 02:42:21;;;;;;;14.38;4.25;;;14.00;99.90;;;;;;5101532;28;20038;-44
2023/10/05 02:44:46;;;;;;;13.65;3.47;;;14.10;99.90;;;;;;5091492;28;20526;-45
2023/10/05 02:47:13;;;;;;;20.23;3.75;;;14.10;99.90;;;;;;5099867;28;20471;-44
2023/10/05 02:49:43;;;;;;;14.07;3.20;;;14.00;99.90;;;;;;5099518;28;20043;-46
2023/10/05 02:52:13;;;;;;;14.75;3.92;;;14.10;99.90;;;;;;5101136;28;20051;-45
2023/10/05 02:54:40;;;;;;;11.32;3.75;;;14.00;99.90;;;;;;5089705;28;20566;-44
2023/10/05 02:57:16;;;;;;;10.20;3.42;;;14.00;99.90;;;;;;5100668;28;20035;-45
2023/10/05 02:59:45;;;;;;;12.82;3.70;;;14.00;99.90;;;;;;5100296;28;20040;-44
2023/10/05 03:02:14;;;;;;;12.25;3.33;;;14.00;99.90;;;;;;5097208;28;20533;-44
2023/10/05 03:04:47;;;;;;;14.48;3.60;;;14.00;99.90;;;;;;5099204;28;20072;-46
2023/10/05 03:07:17;;;;;;;10.30;3.45;;;14.00;99.90;;;;;;5100731;28;20907;-47
2023/10/05 03:09:44;;;;;;;20.30;3.55;;;14.00;99.90;;;;;;5100736;28;20040;-45
2023/10/05 03:12:13;;;;;;;12.02;3.50;;;14.00;99.90;;;;;;5100789;28;20046;-45
2023/10/05 03:14:45;;;;;;;13.45;3.55;;;14.00;99.90;;;;;;5101049;28;20473;-45
2023/10/05 03:17:13;;;;;;;13.07;4.22;;;13.90;99.90;;;;;;5100353;28;20524;-45
2023/10/05 03:19:39;;;;;;;11.02;3.35;;;13.90;99.90;;;;;;5100393;28;20040;-45
2023/10/05 03:22:08;;;;;;;15.07;3.67;;;13.90;99.90;;;;;;5100629;28;20048;-43
2023/10/05 03:24:36;;;;;;;15.10;3.45;;;13.90;99.90;;;;;;5100841;28;20503;-46
2023/10/05 03:27:08;;;;;;;13.77;3.33;;;13.90;99.90;;;;;;5086994;28;20441;-44
2023/10/05 03:29:38;;;;;;;14.10;3.65;;;13.80;99.90;;;;;;5100283;28;20031;-45
2023/10/05 03:32:13;;;;;;;12.27;3.88;;;13.80;99.90;;;;;;5099406;28;20131;-45
2023/10/05 03:34:42;;;;;;;14.27;3.92;;;13.80;99.90;;;;;;5100779;28;20068;-45
2023/10/05 03:37:12;;;;;;;15.63;3.85;;;13.80;99.90;;;;;;5100598;28;20047;-44
2023/10/05 03:42:22;;;;;;;11.77;3.17;;;13.80;99.90;;;;;;5100743;28;20097;-44
2023/10/05 03:45:02;;;;;;;18.02;3.72;;;13.80;99.90;;;;;;5087122;28;20031;-46
2023/10/05 03:47:28;;;;;;;17.48;4.47;;;13.80;99.90;;;;;;5100242;28;20187;-44
2023/10/05 03:49:56;;;;;;;15.23;4.05;;;13.80;99.90;;;;;;5098223;28;20133;-45
2023/10/05 03:52:23;;;;;;;18.55;4.70;;;13.70;99.90;;;;;;5082043;28;20045;-45
2023/10/05 03:54:49;;;;;;;13.25;2.95;;;13.70;99.90;;;;;;5082678;28;20505;-44
2023/10/05 03:57:16;;;;;;;13.82;3.50;;;13.70;99.90;;;;;;5100238;28;20871;-44
2023/10/05 03:59:43;;;;;;;12.85;4.32;;;13.80;99.90;;;;;;5098807;28;20039;-44
2023/10/05 04:02:09;;;;;;;14.35;4.35;;;13.80;99.90;;;;;;5096965;28;20485;-44
2023/10/05 04:04:35;;;;;;;15.50;3.95;;;13.80;99.90;;;;;;5100266;28;20075;-44
2023/10/05 04:07:04;;;;;;;16.42;3.92;;;13.80;99.90;;;;;;5100019;28;20035;-44
2023/10/05 04:09:30;;;;;;;13.77;3.72;;;13.80;99.90;;;;;;5098722;28;20162;-44
2023/10/05 04:11:56;;;;;;;11.32;3.25;;;13.80;99.90;;;;;;5098543;28;20337;-45
2023/10/05 04:14:23;;;;;;;14.32;3.28;;;13.80;99.90;;;;;;5098990;28;20204;-45
2023/10/05 04:16:49;;;;;;;13.63;4.07;;;13.90;99.90;;;;;;5094312;28;20047;-48
2023/10/05 04:19:18;;;;;;;11.70;3.65;;;13.90;99.90;;;;;;5099560;28;20054;-44
2023/10/05 04:21:45;;;;;;;17.42;4.43;;;13.90;99.90;;;;;;5099679;28;20132;-45
2023/10/05 04:24:14;;;;;;;13.68;4.05;;;13.90;99.90;;;;;;5098618;28;20265;-44
2023/10/05 04:26:44;;;;;;;19.25;4.28;;;13.90;99.90;;;;;;5099338;28;20374;-44
2023/10/05 04:29:20;;;;;;;13.50;3.95;;;13.90;99.90;;;;;;5097774;28;20048;-46
2023/10/05 04:31:48;;;;;;;15.27;3.75;;;13.90;99.90;;;;;;5099737;28;20092;-45
2023/10/05 04:34:21;;;;;;;14.65;4.25;;;13.90;99.90;;;;;;5097812;28;20083;-44
2023/10/05 04:36:54;;;;;;;13.30;3.72;;;13.90;99.90;;;;;;5095131;28;20058;-45
2023/10/05 04:39:28;;;;;;;14.65;3.88;;;13.90;99.90;;;;;;5098831;28;20087;-45
2023/10/05 04:41:55;;;;;;;12.38;3.67;;;13.90;99.90;;;;;;5099015;28;20054;-46
2023/10/05 04:44:20;;;;;;;16.60;3.88;;;14.00;99.90;;;;;;5084201;28;20446;-44
2023/10/05 04:46:49;;;;;;;15.52;4.13;;;13.90;99.90;;;;;;5099176;28;20039;-45
2023/10/05 04:49:20;;;;;;;16.25;3.50;;;14.00;99.90;;;;;;5080580;28;20177;-46
2023/10/05 04:51:46;;;;;;;15.02;3.80;;;14.00;99.90;;;;;;5099950;28;20063;-44
2023/10/05 04:54:17;;;;;;;23.63;4.25;;;14.00;99.90;;;;;;5102048;28;20527;-45
2023/10/05 04:56:53;;;;;;;8.55;3.10;;;14.00;99.90;;;;;;5103095;28;20055;-46
2023/10/05 04:59:25;;;;;;;12.95;4.18;;;14.00;99.90;;;;;;5103198;28;20246;-45
2023/10/05 05:05:09;;;;;;;19.10;4.40;;;14.00;99.90;;;;;;5102790;28;20066;-45
2023/10/05 05:07:13;;;;;;;21.35;4.53;;;14.00;99.90;;;;;;5099130;28;20047;-45
2023/10/05 05:09:42;;;;;;;17.85;4.50;;;14.00;99.90;;;;;;5101442;28;20058;-46
2023/10/05 05:12:20;;;;;;;20.13;3.97;;;14.00;99.90;;;;;;5103165;28;20046;-45
2023/10/05 05:14:47;;;;;;;15.35;4.53;;;14.00;99.90;;;;;;5101505;28;20086;-45
2023/10/05 05:17:14;;;;;;;16.73;4.10;;;14.00;99.90;;;;;;5099337;28;20099;-45
2023/10/05 05:19:40;;;;;;;16.05;3.75;;;14.00;99.90;;;;;;5100864;28;20461;-46
2023/10/05 05:22:07;;;;;;;17.90;4.65;;;14.00;99.90;;;;;;5102659;28;20040;-45
2023/10/05 05:24:33;;;;;;;18.40;4.47;;;13.90;99.90;;;;;;5102812;28;20432;-44
2023/10/05 05:29:44;;;;;;;15.23;4.20;;;13.80;99.90;;;;;;5100170;28;20044;-47
2023/10/05 05:32:10;;;;;;;21.98;4.50;;;13.80;99.90;;;;;;5100761;28;20043;-46
2023/10/05 05:34:44;;;;;;;20.25;4.95;;;13.80;99.90;;;;;;5102538;28;20051;-45
2023/10/05 05:37:13;;;;;;;17.98;4.60;;;13.80;99.90;;;;;;5083952;28;20048;-46
2023/10/05 05:39:39;;;;;;;14.65;4.40;;;13.80;99.90;;;;;;5100649;28;20102;-46
2023/10/05 05:42:13;;;;;;;14.80;4.05;;;13.80;99.90;;;;;;5083394;28;20566;-45
2023/10/05 05:44:40;;;;;;;17.50;4.70;;;13.80;99.90;;;;;;5086342;28;20086;-46
2023/10/05 05:47:09;;;;;;;18.95;4.88;;;13.80;99.90;;;;;;5101703;28;20046;-46
2023/10/05 05:49:41;;;;;;;17.27;4.25;;;13.80;99.90;;;;;;5101516;28;20461;-47
2023/10/05 05:52:08;;;;;;;20.58;5.15;;;13.80;99.90;;;;;;5101348;28;20040;-45
2023/10/05 05:54:37;;;;;;;19.88;4.82;;;13.80;99.90;;;;;;5100427;28;20048;-47
2023/10/05 05:57:06;;;;;;;19.73;5.07;;;13.80;99.90;;;;;;5101409;28;20047;-44
2023/10/05 05:59:36;;;;;;;18.73;4.47;;;13.90;99.90;;;;;;5101721;27;20142;-45
2023/10/05 06:02:08;;;;;;;13.23;4.60;;;13.90;99.90;;;;;;5099007;28;20415;-47
2023/10/05 06:04:41;;;;;;;19.97;5.30;;;13.90;99.90;;;;;;5101340;28;20126;-47
2023/10/05 06:07:13;;;;;;;17.35;4.35;;;13.90;99.90;;;;;;5101204;28;20047;-45
2023/10/05 06:09:43;;;;;;;19.23;4.75;;;13.90;99.90;;;;;;5101607;28;20126;-45
2023/10/05 06:12:15;;;;;;;14.52;4.97;;;13.90;99.90;;;;;;5101215;28;20437;-44
2023/10/05 06:14:41;;;;;;;20.90;4.68;;;13.90;99.90;;;;;;5101589;28;20139;-45
2023/10/05 06:17:08;;;;;;;18.80;4.78;;;13.90;99.90;;;;;;5099178;28;20043;-45
2023/10/05 06:19:36;;;;;;;19.30;5.75;;;14.00;99.90;;;;;;5099000;28;20462;-43
2023/10/05 06:22:03;;;;;;;21.77;4.82;;;14.00;99.90;;;;;;5101086;28;20401;-44
2023/10/05 06:24:29;;;;;;;17.60;4.50;;;14.10;99.90;;;;;;5098134;28;20427;-44
2023/10/05 06:26:55;;;;;;;17.40;4.47;;;14.10;99.90;;;;;;5099454;28;20031;-44
2023/10/05 06:29:20;;;;;;;17.75;5.50;;;14.10;99.90;;;;;;5099330;28;20639;-45
2023/10/05 06:31:46;;;;;;;25.30;6.10;;;14.10;99.90;;;;;;5101085;28;20490;-45
2023/10/05 06:34:12;;;;;;;17.83;4.97;;;14.20;99.90;;;;;;5098545;28;20146;-44
2023/10/05 06:36:42;;;;;;;21.90;5.03;;;14.10;99.90;;;;;;5085216;27;20070;-45
2023/10/05 06:39:14;;;;;;;19.80;4.95;;;14.20;99.90;;;;;;5108580;27;20173;-46
2023/10/05 06:41:43;;;;;;;18.35;5.10;;;14.20;99.90;;;;;;5105961;27;20028;-46
2023/10/05 06:44:10;;;;;;;16.67;4.68;;;14.20;99.90;;;;;;5106137;27;20048;-46
2023/10/05 06:46:37;;;;;;;17.42;5.00;;;14.30;99.90;;;;;;5101355;27;20047;-44
2023/10/05 06:49:05;;;;;;;27.20;4.97;;;14.30;99.90;;;;;;5099679;27;20474;-45
2023/10/05 06:51:31;;;;;;;13.05;4.25;;;14.30;99.90;;;;;;5095954;28;20055;-45
2023/10/05 06:53:57;;;;;;;18.08;4.97;;;14.40;99.90;;;;;;5065052;28;20067;-45
2023/10/05 06:56:23;;;;;;;15.65;4.78;;;14.40;99.90;;;;;;5100174;28;20116;-48
2023/10/05 06:58:49;;;;;;;17.05;4.32;;;14.40;99.90;;;;;;5099152;28;20057;-45
2023/10/05 07:01:20;;;;;;;20.45;6.07;;;14.40;99.90;;;;;;5098262;28;20036;-45
2023/10/05 07:03:56;;;;;;;18.95;4.88;;;14.40;99.90;;;;;;5096482;28;20044;-47
2023/10/05 07:06:29;;;;;;;23.00;4.95;;;14.50;99.90;;;;;;5100309;28;20101;-45
2023/10/05 07:08:56;;;;;;;14.35;4.38;;;14.50;99.90;;;;;;5097537;28;20035;-45
2023/10/05 07:11:22;;;;;;;26.88;5.10;;;14.60;99.90;;;;;;5100247;27;20043;-46
2023/10/05 07:13:49;;;;;;;16.20;4.30;;;14.60;99.90;;;;;;5107467;27;20047;-46
2023/10/05 07:16:15;;;;;;;14.02;4.75;;;14.60;99.90;;;;;;5103758;27;20050;-45
2023/10/05 07:18:41;;;;;;;14.68;4.47;;;14.60;99.90;;;;;;5100077;28;20123;-45
2023/10/05 07:21:11;;;;;;;16.77;4.88;;;14.60;99.90;;;;;;5099828;28;20044;-44
2023/10/05 07:23:38;;;;;;;16.20;4.45;;;14.70;99.90;;;;;;5102491;27;20037;-45
2023/10/05 07:26:07;;;;;;;15.63;4.35;;;14.70;99.90;;;;;;5100695;27;20581;-46
2023/10/05 07:28:37;;;;;;;19.85;5.20;;;14.70;99.90;;;;;;5099979;28;20043;-44
2023/10/05 07:31:03;;;;;;;24.50;5.63;;;14.70;99.90;;;;;;5100662;28;20347;-45
2023/10/05 07:33:36;;;;;;;18.35;5.35;;;14.80;99.90;;;;;;5099638;28;20043;-45
2023/10/05 07:36:02;;;;;;;20.80;4.95;;;14.80;99.90;;;;;;5100456;28;20059;-44
2023/10/05 07:38:28;;;;;;;16.30;4.45;;;14.70;99.90;;;;;;5100113;28;20355;-45
2023/10/05 07:40:57;;;;;;;22.23;5.07;;;14.80;99.90;;;;;;5099103;28;20553;-46
2023/10/05 07:43:24;;;;;;;20.10;5.05;;;14.80;99.90;;;;;;5092513;28;20093;-45
2023/10/05 07:45:49;;;;;;;17.42;4.75;;;14.80;99.90;;;;;;5094893;28;20402;-45
2023/10/05 07:48:16;;;;;;;16.52;4.90;;;14.80;99.90;;;;;;5098412;28;20036;-44
2023/10/05 07:50:41;;;;;;;20.02;5.70;;;14.80;99.90;;;;;;5098661;28;20380;-47
2023/10/05 07:53:07;;;;;;;21.92;5.22;;;14.80;99.90;;;;;;5100153;28;20051;-46
2023/10/05 07:55:35;;;;;;;18.67;4.53;;;14.90;99.90;;;;;;5100421;28;20078;-45
2023/10/05 07:58:02;;;;;;;15.48;3.95;;;14.90;99.90;;;;;;5099607;28;20083;-46
2023/10/05 08:00:28;;;;;;;16.65;4.93;;;14.90;99.90;;;;;;5100640;28;20083;-45
2023/10/05 08:02:54;;;;;;;15.65;4.72;;;15.00;99.90;;;;;;5096816;28;20114;-45
2023/10/05 08:05:20;;;;;;;20.83;4.80;;;15.00;99.90;;;;;;5076472;28;20044;-45
2023/10/05 08:07:46;;;;;;;19.80;5.63;;;15.00;99.90;;;;;;5081175;28;20055;-45
2023/10/05 08:10:19;;;;;;;15.60;4.90;;;15.00;99.90;;;;;;5099393;28;20592;-47
2023/10/05 08:12:48;;;;;;;18.65;5.13;;;15.00;99.90;;;;;;5079707;28;20040;-45
2023/10/05 08:15:17;;;;;;;19.63;4.88;;;14.90;99.90;;;;;;5088327;28;20166;-46
2023/10/05 08:17:42;;;;;;;18.45;4.88;;;14.90;99.90;;;;;;5089524;28;20047;-46
2023/10/05 08:20:08;;;;;;;18.30;5.15;;;14.90;99.90;;;;;;5088805;28;20575;-45
2023/10/05 08:22:35;;;;;;;17.33;5.28;;;14.80;99.90;;;;;;5107464;28;20603;-44
2023/10/05 08:25:09;;;;;;;18.55;5.72;;;14.80;99.90;;;;;;5106034;28;20071;-44
2023/10/05 08:27:36;;;;;;;21.10;5.32;;;14.90;99.90;;;;;;5109573;27;20044;-46
2023/10/05 08:30:03;;;;;;;15.95;5.07;;;14.90;99.90;;;;;;5110154;27;20054;-46
2023/10/05 08:32:32;;;;;;;27.58;5.80;;;14.90;99.90;;;;;;5103887;27;20040;-44
2023/10/05 08:34:58;;;;;;;12.93;4.43;;;14.90;99.90;;;;;;5104178;27;20084;-45
2023/10/05 08:37:27;;;;;;;19.55;5.70;;;14.90;99.90;;;;;;5103749;27;20035;-46
2023/10/05 08:39:53;;;;;;;21.08;6.35;;;15.00;99.90;;;;;;5103263;28;20150;-48
2023/10/05 08:42:20;;;;;;;15.55;4.88;;;15.10;99.90;;;;;;5108538;27;20024;-45
2023/10/05 08:44:47;;;;;;;22.55;5.10;;;15.10;99.90;;;;;;5100527;28;20040;-46
2023/10/05 08:47:13;;;;;;;12.63;5.53;;;15.10;99.90;;;;;;5101885;28;20047;-45
2023/10/05 08:49:43;;;;;;;21.80;4.88;;;15.20;99.90;;;;;;5099795;28;20027;-46
2023/10/05 08:52:19;;;;;;;20.25;5.43;;;15.20;99.90;;;;;;5103123;28;20296;-45
2023/10/05 08:54:46;;;;;;;21.17;5.93;;;15.20;99.90;;;;;;5075355;28;20058;-45
2023/10/05 08:57:13;;;;;;;25.77;5.65;;;15.20;99.90;;;;;;5099557;28;20269;-46
2023/10/05 08:59:44;;;;;;;15.57;5.05;;;15.30;99.90;;;;;;5097102;28;20629;-45
2023/10/05 09:02:11;;;;;;;16.45;5.15;;;15.30;99.90;;;;;;5100447;28;20036;-46
2023/10/05 09:04:43;;;;;;;21.25;5.03;;;15.30;99.90;;;;;;5098852;28;20051;-46
2023/10/05 09:07:34;;;;;;;14.68;5.35;;;15.30;99.90;;;;;;5101641;28;20043;-46
2023/10/05 09:10:00;;;;;;;18.58;4.28;;;15.30;99.90;;;;;;5097030;28;20080;-45
2023/10/05 09:12:34;;;;;;;20.40;5.00;;;15.30;99.90;;;;;;5103523;27;20032;-45
2023/10/05 09:17:57;;;;;;;20.10;5.38;;;15.30;99.90;;;;;;5092528;28;20073;-45
2023/10/05 09:20:33;;;;;;;25.02;5.90;;;15.40;99.90;;;;;;5102608;28;20142;-46
2023/10/05 09:23:09;;;;;;;23.00;5.95;;;15.40;99.90;;;;;;5102947;28;20119;-45
2023/10/05 09:25:44;;;;;;;16.88;6.32;;;15.30;99.90;;;;;;5097069;28;20055;-45
2023/10/05 09:28:19;;;;;;;20.70;6.88;;;15.40;99.90;;;;;;5100856;27;20035;-44
2023/10/05 09:30:49;;;;;;;19.75;6.20;;;15.50;99.90;;;;;;5094874;28;20119;-45
2023/10/05 09:33:18;;;;;;;21.50;5.85;;;15.50;99.90;;;;;;5101932;28;20521;-46
2023/10/05 09:35:46;;;;;;;19.88;5.85;;;15.50;99.90;;;;;;5100325;28;20054;-46
2023/10/05 09:38:14;;;;;;;18.45;5.07;;;15.60;99.90;;;;;;5099519;27;20140;-46
2023/10/05 09:40:40;;;;;;;24.58;7.25;;;15.70;99.90;;;;;;5102309;27;20058;-45
2023/10/05 09:43:10;;;;;;;18.77;5.30;;;15.60;99.90;;;;;;5105638;27;20452;-47
2023/10/05 09:45:39;;;;;;;15.23;4.85;;;15.60;99.90;;;;;;5102158;28;20379;-45
2023/10/05 09:48:07;;;;;;;18.88;5.20;;;15.50;99.90;;;;;;5101283;28;20107;-45
2023/10/05 09:50:33;;;;;;;26.80;6.05;;;15.50;99.90;;;;;;5091107;27;20406;-46
2023/10/05 09:52:59;;;;;;;19.08;5.18;;;15.50;99.90;;;;;;5099315;27;20362;-45
2023/10/05 09:55:25;;;;;;;20.52;5.68;;;15.60;99.90;;;;;;5103691;27;20227;-45
2023/10/05 09:57:51;;;;;;;19.75;5.78;;;15.70;99.90;;;;;;5097160;28;20538;-46
2023/10/05 10:03:04;;;;;;;13.23;4.80;;;15.80;99.90;;;;;;5097655;28;20052;-45
2023/10/05 10:05:35;;;;;;;12.43;3.83;;;15.80;99.90;;;;;;5104558;27;20489;-47
2023/10/05 10:08:23;;;;;;;13.65;4.40;;;15.80;99.90;;;;;;5092692;28;20040;-47
2023/10/05 10:11:02;;;;;;;12.73;4.38;;;15.80;99.90;;;;;;5089528;28;20754;-47
2023/10/05 10:13:38;;;;;;;17.67;4.30;;;15.90;99.90;;;;;;5100034;28;20043;-47
2023/10/05 10:16:16;;;;;;;14.20;5.10;;;16.00;99.90;;;;;;5099637;28;20425;-46
2023/10/05 10:18:44;;;;;;;15.38;5.03;;;16.10;99.90;;;;;;5101171;28;20255;-47
2023/10/05 10:21:32;;;;;;;16.48;6.10;;;16.30;99.90;;;;;;5096035;28;20150;-48
2023/10/05 10:24:06;;;;;;;17.85;5.78;;;16.30;99.90;;;;;;5123071;27;20250;-45
2023/10/05 10:26:39;;;;;;;15.60;5.13;;;16.40;99.90;;;;;;5096708;27;20047;-45
2023/10/05 10:29:11;;;;;;;16.52;5.53;;;16.40;99.90;;;;;;5100957;28;20046;-46
2023/10/05 10:31:47;;;;;;;16.42;4.40;;;16.40;99.90;;;;;;5099557;28;20055;-48
2023/10/05 10:34:32;;;;;;;17.35;4.40;;;16.50;99.90;;;;;;5091397;28;20550;-45
2023/10/05 10:36:57;;;;;;;14.77;4.90;;;16.50;99.90;;;;;;5116397;27;20047;-46
2023/10/05 10:39:29;;;;;;;18.25;5.15;;;16.60;99.90;;;;;;5100002;27;20082;-46
2023/10/05 10:42:06;;;;;;;17.23;4.38;;;16.50;99.90;;;;;;5107414;27;20038;-45
2023/10/05 10:47:17;;;;;;;15.10;5.47;;;16.60;99.90;;;;;;5107376;27;20050;-46
2023/10/05 10:50:11;;;;;;;14.73;4.57;;;16.60;99.90;;;;;;5107558;27;20035;-45
2023/10/05 10:52:36;;;;;;;;;;;16.70;99.90;;;;;;5102401;27;20943;-46
2023/10/05 10:55:03;;;;;;;17.58;4.70;;;16.80;99.90;;;;;;5107799;27;19919;-45
2023/10/05 10:57:29;;;;;;;12.68;4.78;;;17.00;99.90;;;;;;5106518;27;20066;-46
2023/10/05 11:00:54;;;;;;;18.02;5.05;;;17.20;99.90;;;;;;5104714;27;20040;-47
2023/10/05 11:02:41;;;;;;;16.63;4.68;;;17.20;99.90;;;;;;5091233;28;20061;-46
2023/10/05 11:05:14;;;;;;;14.30;4.57;;;17.20;99.90;;;;;;5097658;28;20039;-46
2023/10/05 11:07:44;;;;;;;16.38;4.30;;;17.20;99.90;;;;;;5094340;28;20111;-47
2023/10/05 11:10:20;;;;;;;16.40;5.15;;;17.20;99.90;;;;;;5099311;28;20105;-46
2023/10/05 11:12:57;;;;;;;19.30;4.97;;;17.20;99.90;;;;;;5095530;28;20039;-45
2023/10/05 11:15:30;;;;;;;15.63;4.40;;;17.10;99.90;;;;;;5093617;28;20043;-47
2023/10/05 11:18:00;;;;;;;16.10;4.70;;;17.20;99.90;;;;;;5098686;28;20630;-45
2023/10/05 11:20:28;;;;;;;21.60;5.55;;;17.40;99.90;;;;;;5099653;28;20040;-47
2023/10/05 11:23:01;;;;;;;15.27;4.55;;;17.60;99.90;;;;;;5096562;28;20046;-48
2023/10/05 11:25:35;;;;;;;15.25;4.63;;;17.70;99.90;;;;;;5097266;28;20047;-46
2023/10/05 11:28:07;;;;;;;14.32;3.97;;;17.80;99.90;;;;;;5094050;28;20086;-47
2023/10/05 11:30:45;;;;;;;13.05;4.07;;;17.80;99.90;;;;;;5097230;28;20077;-45
2023/10/05 11:33:17;;;;;;;17.75;4.30;;;17.80;99.90;;;;;;5093742;28;20040;-45
2023/10/05 11:35:52;;;;;;;16.90;4.95;;;17.70;99.90;;;;;;5096737;28;20039;-50
2023/10/05 11:38:19;;;;;;;16.13;4.35;;;17.70;99.90;;;;;;5097086;28;20118;-49
2023/10/05 11:40:49;;;;;;;12.82;4.25;;;17.90;99.90;;;;;;5098817;28;20042;-49
2023/10/05 11:43:20;;;;;;;14.98;4.68;;;18.10;99.90;;;;;;5066377;28;20607;-50
2023/10/05 11:46:24;;;;;;;11.50;3.90;;;18.40;99.90;;;;;;5098253;28;20070;-49
2023/10/05 11:48:48;;;;;;;12.63;4.13;;;18.50;99.90;;;;;;5093067;28;20239;-46
2023/10/05 11:51:19;;;;;;;15.25;4.57;;;18.60;99.90;;;;;;5096190;28;20341;-50
2023/10/05 11:53:46;;;;;;;14.15;4.50;;;18.60;99.90;;;;;;5097074;28;20039;-48
2023/10/05 11:56:15;;;;;;;12.65;4.30;;;18.60;99.90;;;;;;5098503;28;20087;-49
2023/10/05 11:58:41;;;;;;;12.88;3.67;;;18.40;99.90;;;;;;5097985;28;20159;-48
2023/10/05 12:01:10;;;;;;;15.98;4.15;;;18.30;99.90;;;;;;5097741;28;20039;-47
2023/10/05 12:03:43;;;;;;;16.15;4.13;;;18.30;99.90;;;;;;5094993;28;20050;-47
2023/10/05 12:06:11;;;;;;;11.30;4.03;;;18.20;99.90;;;;;;5098310;28;20510;-49
2023/10/05 12:08:37;;;;;;;13.98;4.28;;;18.10;99.90;;;;;;5098492;28;20080;-45
2023/10/05 12:11:02;;;;;;;12.88;3.78;;;18.00;99.90;;;;;;5099133;28;20039;-47
2023/10/05 12:13:29;;;;;;;17.00;3.95;;;18.00;99.90;;;;;;5098677;28;20536;-47
2023/10/05 12:15:55;;;;;;;17.25;4.80;;;18.00;99.90;;;;;;5096817;28;20043;-47
2023/10/05 12:18:22;;;;;;;10.23;3.72;;;18.00;99.90;;;;;;5098484;28;20040;-50
2023/10/05 12:20:50;;;;;;;9.18;3.45;;;18.00;99.90;;;;;;5098885;28;20427;-47
2023/10/05 12:23:17;;;;;;;13.88;4.30;;;18.00;99.90;;;;;;5078925;28;20051;-46
2023/10/05 12:25:46;;;;;;;9.35;3.10;;;17.90;99.90;;;;;;5079341;28;20474;-46
2023/10/05 12:28:13;;;;;;;12.82;3.40;;;18.00;99.90;;;;;;5093163;28;20396;-48
2023/10/05 12:30:41;;;;;;;12.65;4.13;;;18.10;99.90;;;;;;5097005;28;20051;-47
2023/10/05 12:33:08;;;;;;;11.73;3.55;;;18.20;99.90;;;;;;5086550;28;20659;-46
2023/10/05 12:35:37;;;;;;;11.55;4.18;;;18.20;99.90;;;;;;5079541;28;20473;-46
2023/10/05 12:38:09;;;;;;;13.43;4.05;;;18.30;99.90;;;;;;5066057;28;20096;-46
2023/10/05 12:40:41;;;;;;;9.07;3.20;;;18.30;99.90;;;;;;5089714;28;20035;-48
2023/10/05 12:43:09;;;;;;;14.10;3.45;;;18.20;99.90;;;;;;5074006;28;20043;-47
2023/10/05 12:45:35;;;;;;;9.48;3.42;;;18.20;99.90;;;;;;5087149;28;20051;-46
2023/10/05 12:48:04;;;;;;;11.75;3.30;;;18.10;99.90;;;;;;5096563;28;20107;-48
2023/10/05 12:50:30;;;;;;;11.90;3.33;;;18.10;99.90;;;;;;5098398;28;20048;-45
2023/10/05 12:52:58;;;;;;;12.15;3.92;;;18.10;99.90;;;;;;5098157;28;20053;-48
2023/10/05 12:55:29;;;;;;;11.57;3.92;;;18.00;99.90;;;;;;5095304;28;20043;-46
2023/10/05 12:57:55;;;;;;;12.77;3.72;;;18.00;99.90;;;;;;5092397;28;20532;-47
2023/10/05 13:00:25;;;;;;;10.70;3.00;;;18.10;99.90;;;;;;5096728;28;20051;-49
2023/10/05 13:02:55;;;;;;;12.20;3.65;;;18.10;99.90;;;;;;5095900;28;20055;-46
2023/10/05 13:05:31;;;;;;;10.02;3.42;;;18.00;99.90;;;;;;5109295;28;20048;-47
2023/10/05 13:08:01;;;;;;;15.50;4.15;;;18.00;99.90;;;;;;5097890;28;20047;-46
2023/10/05 13:10:30;;;;;;;13.98;4.72;;;18.00;99.90;;;;;;5096035;28;20120;-45
2023/10/05 13:13:09;;;;;;;11.85;3.60;;;18.00;99.90;;;;;;5098379;28;20051;-46
2023/10/05 13:15:36;;;;;;;13.30;4.05;;;18.00;99.90;;;;;;5101398;28;20146;-49
2023/10/05 13:18:18;;;;;;;9.25;3.47;;;18.10;99.90;;;;;;5100486;28;20048;-47
2023/10/05 13:20:45;;;;;;;12.20;3.80;;;18.20;99.90;;;;;;5100158;28;20066;-46
2023/10/05 13:23:12;;;;;;;9.98;3.33;;;18.20;99.90;;;;;;5099382;28;20483;-45